sensor_id;sensor_type;location;lat;lon;timestamp;temperature;humidity
52509;DHT22;38420;53.150;6.370;2023-05-07T00:01:06;11.90;99.90
52509;DHT22;38420;53.150;6.370;2023-05-07T00:03:32;12.20;99.90
52509;DHT22;38420;53.150;6.370;2023-05-07T00:05:58;14.20;99.90
52509;DHT22;38420;53.150;6.370;2023-05-07T00:08:24;12.10;99.90
52509;DHT22;38420;53.150;6.370;2023-05-07T00:10:50;12.00;99.90
52509;DHT22;38420;53.150;6.370;2023-05-07T00:13:15;11.80;99.90
52509;DHT22;38420;53.150;6.370;2023-05-07T00:15:41;12.50;99.90
52509;DHT22;38420;53.150;6.370;2023-05-07T00:18:07;11.70;99.90
52509;DHT22;38420;53.150;6.370;2023-05-07T00:20:32;11.80;99.90
52509;DHT22;38420;53.150;6.370;2023-05-07T00:22:58;14.10;99.90
52509;DHT22;38420;53.150;6.370;2023-05-07T00:25:23;11.60;99.90
52509;DHT22;38420;53.150;6.370;2023-05-07T00:27:49;12.20;99.90
52509;DHT22;38420;53.150;6.370;2023-05-07T00:30:15;13.90;99.90
52509;DHT22;38420;53.150;6.370;2023-05-07T00:32:40;12.40;99.90
52509;DHT22;38420;53.150;6.370;2023-05-07T00:35:07;11.70;99.90
52509;DHT22;38420;53.150;6.370;2023-05-07T00:37:32;12.00;99.90
52509;DHT22;38420;53.150;6.370;2023-05-07T00:39:58;11.60;99.90
52509;DHT22;38420;53.150;6.370;2023-05-07T00:42:24;11.90;99.90
52509;DHT22;38420;53.150;6.370;2023-05-07T00:44:49;11.50;99.90
52509;DHT22;38420;53.150;6.370;2023-05-07T00:47:16;13.00;99.90
52509;DHT22;38420;53.150;6.370;2023-05-07T00:49:43;14.00;99.90
52509;DHT22;38420;53.150;6.370;2023-05-07T00:52:14;11.60;99.90
52509;DHT22;38420;53.150;6.370;2023-05-07T00:54:41;12.10;99.90
52509;DHT22;38420;53.150;6.370;2023-05-07T00:57:09;13.10;99.90
52509;DHT22;38420;53.150;6.370;2023-05-07T00:59:35;11.90;99.90
52509;DHT22;38420;53.150;6.370;2023-05-07T01:02:00;12.10;99.90
52509;DHT22;38420;53.150;6.370;2023-05-07T01:04:26;12.70;99.90
52509;DHT22;38420;53.150;6.370;2023-05-07T01:06:56;12.90;99.90
52509;DHT22;38420;53.150;6.370;2023-05-07T01:09:24;13.00;99.90
52509;DHT22;38420;53.150;6.370;2023-05-07T01:11:50;13.30;99.90
52509;DHT22;38420;53.150;6.370;2023-05-07T01:14:17;13.50;99.90
52509;DHT22;38420;53.150;6.370;2023-05-07T01:16:43;12.10;99.90
52509;DHT22;38420;53.150;6.370;2023-05-07T01:19:09;11.00;99.90
52509;DHT22;38420;53.150;6.370;2023-05-07T01:21:37;11.50;99.90
52509;DHT22;38420;53.150;6.370;2023-05-07T01:24:04;11.10;99.90
52509;DHT22;38420;53.150;6.370;2023-05-07T01:26:30;13.70;99.90
52509;DHT22;38420;53.150;6.370;2023-05-07T01:28:56;11.60;99.90
52509;DHT22;38420;53.150;6.370;2023-05-07T01:31:23;12.20;99.90
52509;DHT22;38420;53.150;6.370;2023-05-07T01:33:50;13.80;99.90
52509;DHT22;38420;53.150;6.370;2023-05-07T01:36:18;13.50;99.90
52509;DHT22;38420;53.150;6.370;2023-05-07T01:38:45;13.60;99.90
52509;DHT22;38420;53.150;6.370;2023-05-07T01:41:12;13.70;99.90
52509;DHT22;38420;53.150;6.370;2023-05-07T01:43:39;11.10;99.90
52509;DHT22;38420;53.150;6.370;2023-05-07T01:46:05;10.60;99.90
52509;DHT22;38420;53.150;6.370;2023-05-07T01:48:32;13.60;99.90
52509;DHT22;38420;53.150;6.370;2023-05-07T01:50:58;13.60;99.90
52509;DHT22;38420;53.150;6.370;2023-05-07T01:53:27;13.50;99.90
52509;DHT22;38420;53.150;6.370;2023-05-07T01:55:53;13.50;99.90
52509;DHT22;38420;53.150;6.370;2023-05-07T01:58:18;12.70;99.90
52509;DHT22;38420;53.150;6.370;2023-05-07T02:00:44;12.00;99.90
52509;DHT22;38420;53.150;6.370;2023-05-07T02:03:09;11.70;99.90
52509;DHT22;38420;53.150;6.370;2023-05-07T02:05:35;10.60;99.90
52509;DHT22;38420;53.150;6.370;2023-05-07T02:08:01;10.40;99.90
52509;DHT22;38420;53.150;6.370;2023-05-07T02:10:26;13.40;99.90
52509;DHT22;38420;53.150;6.370;2023-05-07T02:12:52;13.30;99.90
52509;DHT22;38420;53.150;6.370;2023-05-07T02:15:17;10.50;99.90
52509;DHT22;38420;53.150;6.370;2023-05-07T02:18:07;10.40;99.90
52509;DHT22;38420;53.150;6.370;2023-05-07T02:20:33;13.20;99.90
52509;DHT22;38420;53.150;6.370;2023-05-07T02:22:59;11.00;99.90
52509;DHT22;38420;53.150;6.370;2023-05-07T02:25:24;10.30;99.90
52509;DHT22;38420;53.150;6.370;2023-05-07T02:27:50;11.90;99.90
52509;DHT22;38420;53.150;6.370;2023-05-07T02:30:15;10.50;99.90
52509;DHT22;38420;53.150;6.370;2023-05-07T02:32:41;13.10;99.90
52509;DHT22;38420;53.150;6.370;2023-05-07T02:35:07;12.90;99.90
52509;DHT22;38420;53.150;6.370;2023-05-07T02:37:33;12.30;99.90
52509;DHT22;38420;53.150;6.370;2023-05-07T02:39:58;10.80;99.90
52509;DHT22;38420;53.150;6.370;2023-05-07T02:42:24;12.20;99.90
52509;DHT22;38420;53.150;6.370;2023-05-07T02:44:50;10.20;99.90
52509;DHT22;38420;53.150;6.370;2023-05-07T02:47:15;13.00;99.90
52509;DHT22;38420;53.150;6.370;2023-05-07T02:49:41;12.30;99.90
52509;DHT22;38420;53.150;6.370;2023-05-07T02:52:07;11.00;99.90
52509;DHT22;38420;53.150;6.370;2023-05-07T02:54:33;10.00;99.90
52509;DHT22;38420;53.150;6.370;2023-05-07T02:56:58;10.20;99.90
52509;DHT22;38420;53.150;6.370;2023-05-07T02:59:26;9.90;99.90
52509;DHT22;38420;53.150;6.370;2023-05-07T03:01:51;10.60;99.90
52509;DHT22;38420;53.150;6.370;2023-05-07T03:04:17;10.60;99.90
52509;DHT22;38420;53.150;6.370;2023-05-07T03:06:43;11.90;99.90
52509;DHT22;38420;53.150;6.370;2023-05-07T03:09:08;10.00;99.90
52509;DHT22;38420;53.150;6.370;2023-05-07T03:11:34;10.40;99.90
52509;DHT22;38420;53.150;6.370;2023-05-07T03:14:01;13.00;99.90
52509;DHT22;38420;53.150;6.370;2023-05-07T03:16:27;10.90;99.90
52509;DHT22;38420;53.150;6.370;2023-05-07T03:18:52;12.90;99.90
52509;DHT22;38420;53.150;6.370;2023-05-07T03:21:18;9.70;99.90
52509;DHT22;38420;53.150;6.370;2023-05-07T03:23:44;13.00;99.90
52509;DHT22;38420;53.150;6.370;2023-05-07T03:26:09;10.80;99.90
52509;DHT22;38420;53.150;6.370;2023-05-07T03:28:35;9.70;99.90
52509;DHT22;38420;53.150;6.370;2023-05-07T03:31:01;12.50;99.90
52509;DHT22;38420;53.150;6.370;2023-05-07T03:33:26;9.70;99.90
52509;DHT22;38420;53.150;6.370;2023-05-07T03:35:53;11.80;99.90
52509;DHT22;38420;53.150;6.370;2023-05-07T03:38:18;10.00;99.90
52509;DHT22;38420;53.150;6.370;2023-05-07T03:40:44;10.40;99.90
52509;DHT22;38420;53.150;6.370;2023-05-07T03:43:10;11.50;99.90
52509;DHT22;38420;53.150;6.370;2023-05-07T03:45:35;12.80;99.90
52509;DHT22;38420;53.150;6.370;2023-05-07T03:48:01;12.90;99.90
52509;DHT22;38420;53.150;6.370;2023-05-07T03:50:26;9.70;99.90
52509;DHT22;38420;53.150;6.370;2023-05-07T03:52:52;11.40;99.90
52509;DHT22;38420;53.150;6.370;2023-05-07T03:55:18;11.80;99.90
52509;DHT22;38420;53.150;6.370;2023-05-07T03:57:43;12.90;99.90
52509;DHT22;38420;53.150;6.370;2023-05-07T04:00:09;12.70;99.90
52509;DHT22;38420;53.150;6.370;2023-05-07T04:02:35;11.70;99.90
52509;DHT22;38420;53.150;6.370;2023-05-07T04:05:01;9.80;99.90
52509;DHT22;38420;53.150;6.370;2023-05-07T04:07:26;12.30;99.90
52509;DHT22;38420;53.150;6.370;2023-05-07T04:09:52;12.10;99.90
52509;DHT22;38420;53.150;6.370;2023-05-07T04:12:17;11.90;99.90
52509;DHT22;38420;53.150;6.370;2023-05-07T04:14:43;12.70;99.90
52509;DHT22;38420;53.150;6.370;2023-05-07T04:17:08;11.70;99.90
52509;DHT22;38420;53.150;6.370;2023-05-07T04:19:36;12.80;99.90
52509;DHT22;38420;53.150;6.370;2023-05-07T04:22:02;10.80;99.90
52509;DHT22;38420;53.150;6.370;2023-05-07T04:24:27;9.70;99.90
52509;DHT22;38420;53.150;6.370;2023-05-07T04:26:53;12.30;99.90
52509;DHT22;38420;53.150;6.370;2023-05-07T04:29:20;10.40;99.90
52509;DHT22;38420;53.150;6.370;2023-05-07T04:31:46;12.60;99.90
52509;DHT22;38420;53.150;6.370;2023-05-07T04:34:12;12.70;99.90
52509;DHT22;38420;53.150;6.370;2023-05-07T04:36:38;12.10;99.90
52509;DHT22;38420;53.150;6.370;2023-05-07T04:39:04;12.50;99.90
52509;DHT22;38420;53.150;6.370;2023-05-07T04:41:29;9.80;99.90
52509;DHT22;38420;53.150;6.370;2023-05-07T04:43:55;9.60;99.90
52509;DHT22;38420;53.150;6.370;2023-05-07T04:46:22;10.20;99.90
52509;DHT22;38420;53.150;6.370;2023-05-07T04:48:49;12.80;99.90
52509;DHT22;38420;53.150;6.370;2023-05-07T04:51:14;9.70;99.90
52509;DHT22;38420;53.150;6.370;2023-05-07T04:53:40;9.90;99.90
52509;DHT22;38420;53.150;6.370;2023-05-07T04:56:06;12.70;99.90
52509;DHT22;38420;53.150;6.370;2023-05-07T04:58:31;9.70;99.90
52509;DHT22;38420;53.150;6.370;2023-05-07T05:00:58;12.60;99.90
52509;DHT22;38420;53.150;6.370;2023-05-07T05:03:23;10.40;99.90
52509;DHT22;38420;53.150;6.370;2023-05-07T05:05:50;12.20;99.90
52509;DHT22;38420;53.150;6.370;2023-05-07T05:08:16;11.50;99.90
52509;DHT22;38420;53.150;6.370;2023-05-07T05:10:42;11.50;99.90
52509;DHT22;38420;53.150;6.370;2023-05-07T05:13:09;9.70;99.90
52509;DHT22;38420;53.150;6.370;2023-05-07T05:15:35;11.50;99.90
52509;DHT22;38420;53.150;6.370;2023-05-07T05:18:00;12.50;99.90
52509;DHT22;38420;53.150;6.370;2023-05-07T05:20:26;9.50;99.90
52509;DHT22;38420;53.150;6.370;2023-05-07T05:22:52;12.50;99.90
52509;DHT22;38420;53.150;6.370;2023-05-07T05:25:17;12.10;99.90
52509;DHT22;38420;53.150;6.370;2023-05-07T05:27:43;12.40;99.90
52509;DHT22;38420;53.150;6.370;2023-05-07T05:30:09;12.70;99.90
52509;DHT22;38420;53.150;6.370;2023-05-07T05:32:34;10.60;99.90
52509;DHT22;38420;53.150;6.370;2023-05-07T05:35:00;11.80;99.90
52509;DHT22;38420;53.150;6.370;2023-05-07T05:37:26;12.40;99.90
52509;DHT22;38420;53.150;6.370;2023-05-07T05:39:52;10.60;99.90
52509;DHT22;38420;53.150;6.370;2023-05-07T05:42:18;12.60;99.90
52509;DHT22;38420;53.150;6.370;2023-05-07T05:44:43;9.90;99.90
52509;DHT22;38420;53.150;6.370;2023-05-07T05:47:09;12.50;99.90
52509;DHT22;38420;53.150;6.370;2023-05-07T05:49:34;12.40;99.90
52509;DHT22;38420;53.150;6.370;2023-05-07T05:52:00;10.80;99.90
52509;DHT22;38420;53.150;6.370;2023-05-07T05:54:26;9.50;99.90
52509;DHT22;38420;53.150;6.370;2023-05-07T05:56:51;11.80;99.90
52509;DHT22;38420;53.150;6.370;2023-05-07T05:59:17;12.60;99.90
52509;DHT22;38420;53.150;6.370;2023-05-07T06:01:42;10.70;99.90
52509;DHT22;38420;53.150;6.370;2023-05-07T06:04:08;12.10;99.90
52509;DHT22;38420;53.150;6.370;2023-05-07T06:06:34;9.50;99.90
52509;DHT22;38420;53.150;6.370;2023-05-07T06:08:59;9.80;99.90
52509;DHT22;38420;53.150;6.370;2023-05-07T06:11:25;10.20;99.90
52509;DHT22;38420;53.150;6.370;2023-05-07T06:13:51;9.90;99.90
52509;DHT22;38420;53.150;6.370;2023-05-07T06:16:16;12.60;99.90
52509;DHT22;38420;53.150;6.370;2023-05-07T06:18:45;12.60;99.90
52509;DHT22;38420;53.150;6.370;2023-05-07T06:21:12;10.70;99.90
52509;DHT22;38420;53.150;6.370;2023-05-07T06:23:38;11.40;99.90
52509;DHT22;38420;53.150;6.370;2023-05-07T06:26:06;12.70;99.90
52509;DHT22;38420;53.150;6.370;2023-05-07T06:28:32;12.30;99.90
52509;DHT22;38420;53.150;6.370;2023-05-07T06:31:14;12.80;99.90
52509;DHT22;38420;53.150;6.370;2023-05-07T06:33:40;12.80;99.90
52509;DHT22;38420;53.150;6.370;2023-05-07T06:36:06;10.40;99.90
52509;DHT22;38420;53.150;6.370;2023-05-07T06:38:31;12.80;99.90
52509;DHT22;38420;53.150;6.370;2023-05-07T06:40:57;12.90;99.90
52509;DHT22;38420;53.150;6.370;2023-05-07T06:43:22;12.10;99.90
52509;DHT22;38420;53.150;6.370;2023-05-07T06:45:48;9.90;99.90
52509;DHT22;38420;53.150;6.370;2023-05-07T06:48:14;12.40;99.90
52509;DHT22;38420;53.150;6.370;2023-05-07T06:50:39;12.90;99.90
52509;DHT22;38420;53.150;6.370;2023-05-07T06:53:05;12.70;99.90
52509;DHT22;38420;53.150;6.370;2023-05-07T06:55:30;10.10;99.90
52509;DHT22;38420;53.150;6.370;2023-05-07T06:57:56;10.30;99.90
52509;DHT22;38420;53.150;6.370;2023-05-07T07:00:26;12.60;99.90
52509;DHT22;38420;53.150;6.370;2023-05-07T07:02:52;10.30;99.90
52509;DHT22;38420;53.150;6.370;2023-05-07T07:05:18;11.80;99.90
52509;DHT22;38420;53.150;6.370;2023-05-07T07:07:44;10.40;99.90
52509;DHT22;38420;53.150;6.370;2023-05-07T07:10:09;12.90;99.90
52509;DHT22;38420;53.150;6.370;2023-05-07T07:12:35;12.50;99.90
52509;DHT22;38420;53.150;6.370;2023-05-07T07:15:00;12.50;99.90
52509;DHT22;38420;53.150;6.370;2023-05-07T07:17:27;12.80;99.90
52509;DHT22;38420;53.150;6.370;2023-05-07T07:19:53;11.90;99.90
52509;DHT22;38420;53.150;6.370;2023-05-07T07:22:19;10.70;99.90
52509;DHT22;38420;53.150;6.370;2023-05-07T07:24:45;12.90;99.90
52509;DHT22;38420;53.150;6.370;2023-05-07T07:27:10;10.40;99.90
52509;DHT22;38420;53.150;6.370;2023-05-07T07:29:36;13.10;99.90
52509;DHT22;38420;53.150;6.370;2023-05-07T07:32:01;13.00;99.90
52509;DHT22;38420;53.150;6.370;2023-05-07T07:34:27;11.40;99.90
52509;DHT22;38420;53.150;6.370;2023-05-07T07:36:52;11.00;99.90
52509;DHT22;38420;53.150;6.370;2023-05-07T07:39:18;11.40;99.90
52509;DHT22;38420;53.150;6.370;2023-05-07T07:41:44;11.40;99.90
52509;DHT22;38420;53.150;6.370;2023-05-07T07:44:09;10.80;99.90
52509;DHT22;38420;53.150;6.370;2023-05-07T07:46:38;11.50;99.90
52509;DHT22;38420;53.150;6.370;2023-05-07T07:49:03;10.90;99.90
52509;DHT22;38420;53.150;6.370;2023-05-07T07:51:29;11.40;99.90
52509;DHT22;38420;53.150;6.370;2023-05-07T07:53:55;11.90;99.90
52509;DHT22;38420;53.150;6.370;2023-05-07T07:56:23;11.30;99.90
52509;DHT22;38420;53.150;6.370;2023-05-07T07:58:49;13.00;99.90
52509;DHT22;38420;53.150;6.370;2023-05-07T08:01:14;11.40;99.90
52509;DHT22;38420;53.150;6.370;2023-05-07T08:03:41;12.20;99.90
52509;DHT22;38420;53.150;6.370;2023-05-07T08:06:07;11.50;99.90
52509;DHT22;38420;53.150;6.370;2023-05-07T08:08:33;11.60;99.90
52509;DHT22;38420;53.150;6.370;2023-05-07T08:10:58;11.80;99.90
52509;DHT22;38420;53.150;6.370;2023-05-07T08:13:24;11.80;99.90
52509;DHT22;38420;53.150;6.370;2023-05-07T08:15:50;11.00;99.90
52509;DHT22;38420;53.150;6.370;2023-05-07T08:18:15;12.20;99.90
52509;DHT22;38420;53.150;6.370;2023-05-07T08:20:41;13.20;99.90
52509;DHT22;38420;53.150;6.370;2023-05-07T08:23:07;11.20;99.90
52509;DHT22;38420;53.150;6.370;2023-05-07T08:25:34;13.30;99.90
52509;DHT22;38420;53.150;6.370;2023-05-07T08:28:00;13.30;99.90
52509;DHT22;38420;53.150;6.370;2023-05-07T08:30:26;13.40;99.90
52509;DHT22;38420;53.150;6.370;2023-05-07T08:32:51;11.70;99.90
52509;DHT22;38420;53.150;6.370;2023-05-07T08:35:17;13.00;99.90
52509;DHT22;38420;53.150;6.370;2023-05-07T08:37:43;13.40;99.90
52509;DHT22;38420;53.150;6.370;2023-05-07T08:40:09;12.10;99.90
52509;DHT22;38420;53.150;6.370;2023-05-07T08:42:36;11.70;99.90
52509;DHT22;38420;53.150;6.370;2023-05-07T08:45:08;11.90;99.90
52509;DHT22;38420;53.150;6.370;2023-05-07T08:47:42;11.80;99.90
52509;DHT22;38420;53.150;6.370;2023-05-07T08:50:10;11.90;99.90
52509;DHT22;38420;53.150;6.370;2023-05-07T08:52:36;13.40;99.90
52509;DHT22;38420;53.150;6.370;2023-05-07T08:55:03;12.60;99.90
52509;DHT22;38420;53.150;6.370;2023-05-07T08:57:28;12.30;99.90
52509;DHT22;38420;53.150;6.370;2023-05-07T08:59:55;12.40;99.90
52509;DHT22;38420;53.150;6.370;2023-05-07T09:02:20;13.10;99.90
52509;DHT22;38420;53.150;6.370;2023-05-07T09:04:46;13.60;99.90
52509;DHT22;38420;53.150;6.370;2023-05-07T09:07:11;12.50;99.90
52509;DHT22;38420;53.150;6.370;2023-05-07T09:09:37;12.60;99.90
52509;DHT22;38420;53.150;6.370;2023-05-07T09:12:03;14.10;99.90
52509;DHT22;38420;53.150;6.370;2023-05-07T09:14:29;14.00;99.90
52509;DHT22;38420;53.150;6.370;2023-05-07T09:16:56;14.30;99.90
52509;DHT22;38420;53.150;6.370;2023-05-07T09:19:26;14.30;99.90
52509;DHT22;38420;53.150;6.370;2023-05-07T09:22:02;14.00;99.90
52509;DHT22;38420;53.150;6.370;2023-05-07T09:24:28;13.90;99.90
52509;DHT22;38420;53.150;6.370;2023-05-07T09:26:59;13.80;99.90
52509;DHT22;38420;53.150;6.370;2023-05-07T09:29:25;14.20;99.90
52509;DHT22;38420;53.150;6.370;2023-05-07T09:31:51;14.50;99.90
52509;DHT22;38420;53.150;6.370;2023-05-07T09:34:16;14.30;99.90
52509;DHT22;38420;53.150;6.370;2023-05-07T09:36:42;13.60;99.90
52509;DHT22;38420;53.150;6.370;2023-05-07T09:39:08;13.90;99.90
52509;DHT22;38420;53.150;6.370;2023-05-07T09:41:43;14.50;99.90
52509;DHT22;38420;53.150;6.370;2023-05-07T09:44:09;13.80;99.90
52509;DHT22;38420;53.150;6.370;2023-05-07T09:46:36;14.30;99.90
52509;DHT22;38420;53.150;6.370;2023-05-07T09:49:06;15.00;99.90
52509;DHT22;38420;53.150;6.370;2023-05-07T09:51:41;15.00;99.90
52509;DHT22;38420;53.150;6.370;2023-05-07T09:54:10;15.00;99.90
52509;DHT22;38420;53.150;6.370;2023-05-07T09:56:36;15.10;99.90
52509;DHT22;38420;53.150;6.370;2023-05-07T09:59:03;15.00;99.90
52509;DHT22;38420;53.150;6.370;2023-05-07T10:01:31;14.60;99.90
52509;DHT22;38420;53.150;6.370;2023-05-07T10:03:58;15.30;99.90
52509;DHT22;38420;53.150;6.370;2023-05-07T10:06:24;14.50;99.90
52509;DHT22;38420;53.150;6.370;2023-05-07T10:08:52;15.30;99.90
52509;DHT22;38420;53.150;6.370;2023-05-07T10:11:18;15.30;99.90
52509;DHT22;38420;53.150;6.370;2023-05-07T10:13:46;15.00;99.90
52509;DHT22;38420;53.150;6.370;2023-05-07T10:16:13;15.00;99.90
52509;DHT22;38420;53.150;6.370;2023-05-07T10:18:41;15.90;99.90
52509;DHT22;38420;53.150;6.370;2023-05-07T10:21:23;15.60;99.90
52509;DHT22;38420;53.150;6.370;2023-05-07T10:23:50;15.60;99.90
52509;DHT22;38420;53.150;6.370;2023-05-07T10:26:18;16.20;99.90
52509;DHT22;38420;53.150;6.370;2023-05-07T10:28:50;15.80;99.90
52509;DHT22;38420;53.150;6.370;2023-05-07T10:34:14;15.60;99.90
52509;DHT22;38420;53.150;6.370;2023-05-07T10:36:42;16.50;99.90
52509;DHT22;38420;53.150;6.370;2023-05-07T10:39:08;16.40;99.90
52509;DHT22;38420;53.150;6.370;2023-05-07T10:41:34;15.90;99.90
52509;DHT22;38420;53.150;6.370;2023-05-07T10:44:00;16.60;99.90
52509;DHT22;38420;53.150;6.370;2023-05-07T10:46:27;16.00;99.90
52509;DHT22;38420;53.150;6.370;2023-05-07T10:51:34;16.20;99.90
52509;DHT22;38420;53.150;6.370;2023-05-07T10:56:38;16.60;99.90
52509;DHT22;38420;53.150;6.370;2023-05-07T11:01:57;16.80;99.90
52509;DHT22;38420;53.150;6.370;2023-05-07T11:04:23;16.30;99.90
52509;DHT22;38420;53.150;6.370;2023-05-07T11:15:08;16.50;99.90
52509;DHT22;38420;53.150;6.370;2023-05-07T11:17:34;16.70;99.90
52509;DHT22;38420;53.150;6.370;2023-05-07T11:20:01;16.90;99.90
52509;DHT22;38420;53.150;6.370;2023-05-07T11:24:59;16.80;99.90
52509;DHT22;38420;53.150;6.370;2023-05-07T11:27:26;17.50;99.90
52509;DHT22;38420;53.150;6.370;2023-05-07T11:29:52;17.70;99.90
52509;DHT22;38420;53.150;6.370;2023-05-07T11:32:29;17.50;99.90
52509;DHT22;38420;53.150;6.370;2023-05-07T11:34:56;17.60;99.90
52509;DHT22;38420;53.150;6.370;2023-05-07T11:37:23;17.90;99.90
52509;DHT22;38420;53.150;6.370;2023-05-07T11:39:49;17.80;99.90
52509;DHT22;38420;53.150;6.370;2023-05-07T11:42:31;17.70;99.90
52509;DHT22;38420;53.150;6.370;2023-05-07T11:44:57;18.10;99.90
52509;DHT22;38420;53.150;6.370;2023-05-07T11:47:23;17.90;99.90
52509;DHT22;38420;53.150;6.370;2023-05-07T11:49:51;18.00;99.90
52509;DHT22;38420;53.150;6.370;2023-05-07T11:52:18;18.00;99.90
52509;DHT22;38420;53.150;6.370;2023-05-07T11:54:55;18.10;99.90
52509;DHT22;38420;53.150;6.370;2023-05-07T11:57:22;18.20;99.90
52509;DHT22;38420;53.150;6.370;2023-05-07T11:59:47;17.90;99.90
52509;DHT22;38420;53.150;6.370;2023-05-07T12:02:17;18.10;99.90
52509;DHT22;38420;53.150;6.370;2023-05-07T12:04:44;18.30;99.90
52509;DHT22;38420;53.150;6.370;2023-05-07T12:07:16;18.30;99.90
52509;DHT22;38420;53.150;6.370;2023-05-07T12:09:43;18.00;99.90
52509;DHT22;38420;53.150;6.370;2023-05-07T12:12:08;18.50;99.90
52509;DHT22;38420;53.150;6.370;2023-05-07T12:14:39;18.70;99.90
52509;DHT22;38420;53.150;6.370;2023-05-07T12:17:09;18.80;99.90
52509;DHT22;38420;53.150;6.370;2023-05-07T12:19:36;18.60;99.90
52509;DHT22;38420;53.150;6.370;2023-05-07T12:22:03;18.50;99.90
52509;DHT22;38420;53.150;6.370;2023-05-07T12:24:30;18.50;99.90
52509;DHT22;38420;53.150;6.370;2023-05-07T12:27:06;18.80;99.90
52509;DHT22;38420;53.150;6.370;2023-05-07T12:29:32;18.60;99.90
52509;DHT22;38420;53.150;6.370;2023-05-07T12:31:58;18.80;99.90
52509;DHT22;38420;53.150;6.370;2023-05-07T12:34:24;18.60;99.90
52509;DHT22;38420;53.150;6.370;2023-05-07T12:36:49;18.80;99.90
52509;DHT22;38420;53.150;6.370;2023-05-07T12:39:15;19.00;99.90
52509;DHT22;38420;53.150;6.370;2023-05-07T12:41:57;18.90;99.90
52509;DHT22;38420;53.150;6.370;2023-05-07T12:44:32;18.70;99.90
52509;DHT22;38420;53.150;6.370;2023-05-07T12:47:01;18.90;99.90
52509;DHT22;38420;53.150;6.370;2023-05-07T12:49:27;19.00;99.90
52509;DHT22;38420;53.150;6.370;2023-05-07T12:51:54;18.90;99.90
52509;DHT22;38420;53.150;6.370;2023-05-07T12:54:33;19.10;99.90
52509;DHT22;38420;53.150;6.370;2023-05-07T12:57:09;18.90;99.90
52509;DHT22;38420;53.150;6.370;2023-05-07T12:59:40;18.90;99.90
52509;DHT22;38420;53.150;6.370;2023-05-07T13:02:06;19.20;99.90
52509;DHT22;38420;53.150;6.370;2023-05-07T13:04:32;18.90;99.90
52509;DHT22;38420;53.150;6.370;2023-05-07T13:06:59;19.20;99.90
52509;DHT22;38420;53.150;6.370;2023-05-07T13:09:25;19.10;99.90
52509;DHT22;38420;53.150;6.370;2023-05-07T13:11:50;19.20;99.90
52509;DHT22;38420;53.150;6.370;2023-05-07T13:14:16;19.50;99.90
52509;DHT22;38420;53.150;6.370;2023-05-07T13:16:42;19.50;99.90
52509;DHT22;38420;53.150;6.370;2023-05-07T13:19:07;19.50;99.90
52509;DHT22;38420;53.150;6.370;2023-05-07T13:21:33;19.30;99.90
52509;DHT22;38420;53.150;6.370;2023-05-07T13:23:59;19.50;99.90
52509;DHT22;38420;53.150;6.370;2023-05-07T13:26:25;19.30;99.90
52509;DHT22;38420;53.150;6.370;2023-05-07T13:28:54;19.20;99.90
52509;DHT22;38420;53.150;6.370;2023-05-07T13:31:20;19.30;99.90
52509;DHT22;38420;53.150;6.370;2023-05-07T13:33:46;19.30;99.90
52509;DHT22;38420;53.150;6.370;2023-05-07T13:36:12;19.40;99.90
52509;DHT22;38420;53.150;6.370;2023-05-07T13:38:38;19.30;99.90
52509;DHT22;38420;53.150;6.370;2023-05-07T13:41:04;19.20;99.90
52509;DHT22;38420;53.150;6.370;2023-05-07T13:43:30;19.40;99.90
52509;DHT22;38420;53.150;6.370;2023-05-07T13:45:57;19.30;99.90
52509;DHT22;38420;53.150;6.370;2023-05-07T13:48:22;19.20;99.90
52509;DHT22;38420;53.150;6.370;2023-05-07T13:50:48;19.30;99.90
52509;DHT22;38420;53.150;6.370;2023-05-07T13:53:13;19.30;99.90
52509;DHT22;38420;53.150;6.370;2023-05-07T13:55:43;19.40;99.90
52509;DHT22;38420;53.150;6.370;2023-05-07T13:58:09;19.60;99.90
52509;DHT22;38420;53.150;6.370;2023-05-07T14:00:35;19.40;99.90
52509;DHT22;38420;53.150;6.370;2023-05-07T14:03:01;19.40;99.90
52509;DHT22;38420;53.150;6.370;2023-05-07T14:05:26;19.60;99.90
52509;DHT22;38420;53.150;6.370;2023-05-07T14:07:57;19.30;99.90
52509;DHT22;38420;53.150;6.370;2023-05-07T14:10:23;19.40;99.90
52509;DHT22;38420;53.150;6.370;2023-05-07T14:12:48;19.30;99.90
52509;DHT22;38420;53.150;6.370;2023-05-07T14:15:14;19.40;99.90
52509;DHT22;38420;53.150;6.370;2023-05-07T14:17:41;19.50;99.90
52509;DHT22;38420;53.150;6.370;2023-05-07T14:20:07;19.50;99.90
52509;DHT22;38420;53.150;6.370;2023-05-07T14:22:33;19.50;99.90
52509;DHT22;38420;53.150;6.370;2023-05-07T14:24:58;19.50;99.90
52509;DHT22;38420;53.150;6.370;2023-05-07T14:27:24;19.30;99.90
52509;DHT22;38420;53.150;6.370;2023-05-07T14:29:49;19.20;99.90
52509;DHT22;38420;53.150;6.370;2023-05-07T14:32:19;19.30;99.90
52509;DHT22;38420;53.150;6.370;2023-05-07T14:34:45;19.30;99.90
52509;DHT22;38420;53.150;6.370;2023-05-07T14:37:11;19.30;99.90
52509;DHT22;38420;53.150;6.370;2023-05-07T14:39:37;19.40;99.90
52509;DHT22;38420;53.150;6.370;2023-05-07T14:42:03;19.50;99.90
52509;DHT22;38420;53.150;6.370;2023-05-07T14:44:28;19.50;99.90
52509;DHT22;38420;53.150;6.370;2023-05-07T14:46:54;19.30;99.90
52509;DHT22;38420;53.150;6.370;2023-05-07T14:49:20;19.30;99.90
52509;DHT22;38420;53.150;6.370;2023-05-07T14:51:46;19.20;99.90
52509;DHT22;38420;53.150;6.370;2023-05-07T14:54:13;19.40;99.90
52509;DHT22;38420;53.150;6.370;2023-05-07T14:56:39;19.20;99.90
52509;DHT22;38420;53.150;6.370;2023-05-07T14:59:04;19.40;99.90
52509;DHT22;38420;53.150;6.370;2023-05-07T15:01:30;19.50;99.90
52509;DHT22;38420;53.150;6.370;2023-05-07T15:03:56;19.60;99.90
52509;DHT22;38420;53.150;6.370;2023-05-07T15:06:22;19.70;99.90
52509;DHT22;38420;53.150;6.370;2023-05-07T15:08:47;19.80;99.90
52509;DHT22;38420;53.150;6.370;2023-05-07T15:11:14;19.80;99.90
52509;DHT22;38420;53.150;6.370;2023-05-07T15:13:41;19.90;99.90
52509;DHT22;38420;53.150;6.370;2023-05-07T15:16:07;19.70;99.90
52509;DHT22;38420;53.150;6.370;2023-05-07T15:18:32;19.70;99.90
52509;DHT22;38420;53.150;6.370;2023-05-07T15:20:58;19.60;99.90
52509;DHT22;38420;53.150;6.370;2023-05-07T15:23:24;19.60;99.90
52509;DHT22;38420;53.150;6.370;2023-05-07T15:25:50;19.50;99.90
52509;DHT22;38420;53.150;6.370;2023-05-07T15:28:15;19.70;99.90
52509;DHT22;38420;53.150;6.370;2023-05-07T15:30:42;19.70;99.90
52509;DHT22;38420;53.150;6.370;2023-05-07T15:33:07;19.80;99.90
52509;DHT22;38420;53.150;6.370;2023-05-07T15:35:33;19.80;99.90
52509;DHT22;38420;53.150;6.370;2023-05-07T15:37:58;19.70;99.90
52509;DHT22;38420;53.150;6.370;2023-05-07T15:40:24;19.90;99.90
52509;DHT22;38420;53.150;6.370;2023-05-07T15:42:54;19.90;99.90
52509;DHT22;38420;53.150;6.370;2023-05-07T15:45:20;19.80;99.90
52509;DHT22;38420;53.150;6.370;2023-05-07T15:47:46;19.80;99.90
52509;DHT22;38420;53.150;6.370;2023-05-07T15:50:12;19.70;99.90